Time;durP1;ratioP1;P1;durP2;ratioP2;P2;SDS_P1;SDS_P2;PMS_P1;PMS_P2;Temp;Humidity;BMP_temperature;BMP_pressure;BME280_temperature;BME280_humidity;BME280_pressure;Samples;Min_cycle;Max_cycle;Signal;HPM_P1;HPM_P2
2022/03/25 00:01:26;;;;;;;13.57;8.80;;;14.40;30.00;;;14.87;26.43;99585.09;4945711;28;123838;-82
2022/03/25 00:03:54;;;;;;;12.40;9.07;;;14.40;30.00;;;14.78;26.71;99588.66;4957760;28;114125;-82
2022/03/25 00:06:40;;;;;;;12.90;8.37;;;16.60;32.00;;;14.70;26.69;99586.66;4958456;28;114834;-83
2022/03/25 00:09:08;;;;;;;10.43;8.10;;;12.70;28.90;;;14.65;26.66;99594.34;4924496;28;123779;-82
2022/03/25 00:11:54;;;;;;;13.13;9.23;;;14.10;31.00;;;14.61;26.67;99590.53;4938198;28;124455;-88
2022/03/25 00:14:40;;;;;;;10.50;8.10;;;12.20;28.80;;;14.57;26.70;99599.53;4937612;28;117414;-90
2022/03/25 00:17:08;;;;;;;12.40;8.27;;;14.00;30.20;;;14.51;26.71;99589.66;4923834;28;113560;-91
2022/03/25 00:19:56;;;;;;;11.83;8.60;;;13.90;30.60;;;14.51;26.77;99586.06;4937767;28;124841;-89
2022/03/25 00:23:01;;;;;;;11.93;8.87;;;13.80;30.10;;;14.43;26.83;99587.66;4937884;28;124325;-87
2022/03/25 00:25:29;;;;;;;10.00;8.70;;;15.10;31.50;;;14.40;26.99;99588.28;4937384;28;115106;-90
2022/03/25 00:31:58;;;;;;;10.60;7.43;;;13.80;30.60;;;14.26;26.99;99580.00;4941305;28;125148;-86
2022/03/25 00:34:46;;;;;;;10.70;7.40;;;12.40;29.60;;;14.25;27.15;99580.34;4938616;28;123604;-85
2022/03/25 00:44:22;;;;;;;9.23;7.37;;;13.70;30.90;;;14.12;27.35;99582.06;4940490;28;124578;-85
2022/03/25 00:46:49;;;;;;;10.97;8.23;;;14.60;32.30;;;14.10;27.43;99574.06;4932081;28;123162;-81
2022/03/25 00:50:14;;;;;;;10.50;7.80;;;13.60;31.60;;;14.10;27.54;99578.75;4937973;28;113857;-86
2022/03/25 00:52:41;;;;;;;10.60;7.43;;;13.40;31.00;;;14.06;27.61;99572.22;4937343;28;114061;-81
2022/03/25 00:58:49;;;;;;;10.33;8.13;;;13.50;31.30;;;13.98;27.73;99564.66;4921453;28;123995;-90
2022/03/25 01:01:18;;;;;;;11.20;8.30;;;13.30;31.80;;;13.97;27.68;99574.09;4921114;28;114336;-89
2022/03/25 01:03:44;;;;;;;10.70;8.17;;;13.40;31.70;;;13.93;27.69;99562.81;4898227;28;112506;-89
2022/03/25 01:06:35;;;;;;;12.07;7.73;;;13.30;32.00;;;13.93;27.87;99565.59;4936972;28;124489;-88
2022/03/25 01:09:03;;;;;;;11.93;8.33;;;12.90;31.20;;;13.89;28.00;99561.81;4939231;28;123537;-82
2022/03/25 01:11:50;;;;;;;12.47;8.83;;;12.90;31.60;;;13.87;27.98;99569.63;4921005;28;116040;-84
2022/03/25 01:14:36;;;;;;;10.83;8.23;;;13.30;31.80;;;13.80;28.20;99561.72;4923519;28;114415;-82
2022/03/25 01:17:04;;;;;;;9.93;7.83;;;13.20;31.80;;;13.75;28.09;99561.03;4937125;28;123921;-87
2022/03/25 01:19:31;;;;;;;11.87;8.93;;;13.10;32.20;;;13.73;28.24;99568.84;4936764;28;124482;-90
2022/03/25 01:21:57;;;;;;;12.27;8.77;;;13.10;32.00;;;13.70;28.31;99564.75;4937389;28;115184;-90
2022/03/25 01:28:06;;;;;;;13.20;8.20;;;13.00;32.10;;;13.46;28.57;99560.31;4920197;28;124286;-89
2022/03/25 01:30:32;;;;;;;13.50;9.33;;;12.90;32.90;;;13.38;28.81;99563.00;4920784;28;124154;-88
2022/03/25 01:33:20;;;;;;;16.83;10.83;;;12.80;32.90;;;13.30;28.79;99572.91;4899606;28;113905;-90
2022/03/25 01:39:29;;;;;;;12.93;9.00;;;12.60;32.80;;;13.13;28.97;99570.72;4919410;28;124827;-90
2022/03/25 01:41:55;;;;;;;13.20;9.00;;;12.50;33.30;;;13.13;29.05;99573.50;4918392;28;124390;-90
2022/03/25 01:44:42;;;;;;;14.53;8.87;;;11.80;32.50;;;13.12;29.01;99566.31;4916032;28;114785;-90
2022/03/25 01:47:15;;;;;;;11.37;8.03;;;12.50;33.00;;;13.11;29.04;99570.25;4917667;28;113704;-90
2022/03/25 01:49:42;;;;;;;13.27;9.10;;;12.50;33.70;;;13.10;29.10;99562.22;4935202;28;124452;-90
2022/03/25 01:52:29;;;;;;;13.50;8.60;;;12.50;33.60;;;13.09;29.30;99572.50;4935836;28;123704;-89
2022/03/25 01:55:21;;;;;;;11.90;8.70;;;11.80;32.70;;;13.05;29.26;99575.03;4935362;28;114100;-89
2022/03/25 01:58:26;;;;;;;11.10;8.30;;;12.50;33.40;;;13.03;29.58;99570.97;4921943;28;112665;-89
2022/03/25 02:01:11;;;;;;;15.83;8.60;;;12.40;33.40;;;13.00;29.59;99569.63;4892570;28;124812;-90
2022/03/25 02:03:59;;;;;;;12.97;9.20;;;12.40;33.60;;;13.00;29.59;99579.88;4906346;28;123562;-89
2022/03/25 02:06:27;;;;;;;14.50;7.83;;;11.30;32.70;;;12.98;29.49;99576.63;4912031;28;114801;-90
2022/03/25 02:09:33;;;;;;;14.13;8.60;;;12.60;34.60;;;12.95;29.54;99577.22;4914523;28;114695;-90
2022/03/25 02:15:47;;;;;;;10.40;7.77;;;13.30;34.80;;;12.87;29.72;99580.72;4924142;28;124287;-86
2022/03/25 02:18:18;;;;;;;11.90;8.60;;;12.20;34.10;;;12.82;30.16;99579.69;4921917;28;113140;-89
2022/03/25 02:21:24;;;;;;;13.50;9.70;;;12.20;34.10;;;12.78;29.79;99589.75;4922594;28;113421;-89
2022/03/25 02:27:34;;;;;;;9.67;7.83;;;11.60;33.50;;;12.70;29.87;99581.34;4922798;28;124799;-88
2022/03/25 02:30:01;;;;;;;11.50;8.10;;;10.80;33.30;;;12.67;30.33;99582.75;4922495;28;115032;-89
2022/03/25 02:36:10;;;;;;;11.43;7.67;;;12.00;34.20;;;12.63;30.36;99592.00;4922453;28;124346;-90
2022/03/25 02:39:19;;;;;;;12.83;8.70;;;12.00;35.00;;;12.58;30.52;99585.44;4922108;28;123283;-88
2022/03/25 02:42:06;;;;;;;10.43;8.07;;;10.30;33.00;;;12.56;30.47;99584.09;4931683;28;114895;-88
2022/03/25 02:44:34;;;;;;;11.50;8.10;;;11.30;34.00;;;12.53;30.87;99582.75;4958645;28;113760;-89
2022/03/25 02:47:01;;;;;;;13.93;8.93;;;11.80;35.30;;;12.51;30.57;99581.41;4960347;28;124058;-88
2022/03/25 02:53:09;;;;;;;11.77;8.60;;;11.80;34.90;;;12.44;30.97;99581.00;4941974;28;114817;-88
2022/03/25 02:55:56;;;;;;;12.10;8.00;;;11.90;35.70;;;12.43;30.97;99587.66;4942034;28;113880;-88
2022/03/25 02:59:20;;;;;;;12.77;9.00;;;10.80;34.50;;;12.40;30.82;99588.28;4941180;28;124663;-89
2022/03/25 03:05:31;;;;;;;12.53;8.43;;;11.60;35.40;;;12.25;31.68;99575.50;4942222;28;116401;-84
2022/03/25 03:07:59;;;;;;;11.03;8.10;;;10.10;34.30;;;12.21;31.37;99578.09;4923936;28;114732;-89
2022/03/25 03:10:27;;;;;;;12.40;8.70;;;11.50;36.60;;;12.20;31.34;99575.59;4937627;28;123989;-89
2022/03/25 03:13:13;;;;;;;10.87;8.23;;;12.70;37.20;;;12.19;31.39;99577.56;4938624;28;123536;-88
2022/03/25 03:19:23;;;;;;;13.83;8.80;;;10.10;34.70;;;12.09;31.57;99580.50;4941147;28;114995;-88
2022/03/25 03:25:32;;;;;;;14.10;9.30;;;9.80;35.60;;;12.03;31.69;99578.94;4922380;28;124946;-88
2022/03/25 03:31:47;;;;;;;13.53;8.47;;;10.10;35.00;;;11.94;31.93;99565.78;4923053;28;113894;-88
2022/03/25 03:34:56;;;;;;;11.97;9.17;;;10.50;35.40;;;11.94;31.96;99574.09;4902422;28;124712;-89
2022/03/25 03:37:44;;;;;;;13.13;8.40;;;9.80;35.90;;;11.92;31.96;99576.34;4925339;28;123243;-89
2022/03/25 03:40:30;;;;;;;12.30;9.10;;;11.20;36.50;;;11.90;31.81;99575.84;4919176;28;114933;-89
2022/03/25 03:42:57;;;;;;;13.63;8.37;;;11.20;36.30;;;11.88;32.22;99575.31;4904581;28;113837;-89
2022/03/25 03:49:06;;;;;;;14.60;8.73;;;11.10;36.50;;;11.82;31.94;99573.72;4922539;28;124772;-84
2022/03/25 03:52:29;;;;;;;12.83;9.07;;;11.10;36.90;;;11.81;32.17;99576.78;4906498;28;114278;-88
2022/03/25 03:54:56;;;;;;;17.07;9.40;;;9.30;36.00;;;11.78;32.41;99569.91;4921957;28;113572;-84
2022/03/25 03:57:24;;;;;;;12.47;8.57;;;11.10;36.80;;;11.77;32.09;99575.72;4918715;28;124750;-87
2022/03/25 04:03:36;;;;;;;12.30;8.80;;;9.80;36.70;;;11.67;32.34;99568.44;4922365;28;116155;-85
2022/03/25 04:09:45;;;;;;;16.00;10.63;;;10.50;36.60;;;11.50;32.99;99569.78;4922539;28;125260;-87
2022/03/25 04:12:14;;;;;;;15.43;10.47;;;10.00;37.10;;;11.45;32.84;99574.59;4905938;28;123421;-82
2022/03/25 04:15:02;;;;;;;19.63;12.27;;;10.80;38.20;;;11.34;33.17;99562.84;4919769;28;115157;-83
2022/03/25 04:21:12;;;;;;;15.87;11.30;;;10.00;37.50;;;11.06;33.28;99568.19;4922454;28;125170;-79
2022/03/25 04:27:23;;;;;;;11.97;8.70;;;9.30;38.10;;;11.05;33.68;99572.06;4922843;28;115410;-83
2022/03/25 04:33:34;;;;;;;12.83;8.40;;;8.60;37.50;;;10.99;33.72;99564.97;4921897;28;125082;-77
2022/03/25 04:39:42;;;;;;;13.00;9.57;;;8.80;37.70;;;10.95;33.48;99577.72;4922536;28;115304;-88
2022/03/25 04:42:30;;;;;;;15.60;9.40;;;10.70;38.90;;;10.94;33.58;99576.09;4904516;28;112577;-89
2022/03/25 04:44:58;;;;;;;11.70;8.27;;;9.00;38.00;;;10.93;33.73;99579.97;4918494;28;124639;-82
2022/03/25 04:51:07;;;;;;;13.03;9.30;;;8.80;38.00;;;10.93;33.62;99568.09;4922298;28;115366;-84
2022/03/25 04:53:34;;;;;;;13.57;9.63;;;10.40;38.90;;;10.92;33.57;99575.56;4921994;28;114728;-79
2022/03/25 04:56:38;;;;;;;18.60;9.97;;;10.20;38.60;;;10.92;33.82;99578.31;4905372;28;123779;-82
2022/03/25 05:02:47;;;;;;;20.33;12.20;;;8.30;38.20;;;10.79;34.46;99579.84;4920969;28;116080;-86
2022/03/25 05:17:06;;;;;;;14.70;10.77;;;9.70;40.90;;;10.26;34.98;99587.31;5503971;23;99252;-90
2022/03/25 05:19:54;;;;;;;17.00;11.60;;;9.60;40.70;;;10.21;35.12;99585.44;4943121;28;123077;-88
2022/03/25 05:22:21;;;;;;;17.83;11.93;;;8.70;40.20;;;10.12;35.32;99582.47;4943442;28;122716;-84
2022/03/25 05:28:30;;;;;;;17.40;11.97;;;8.30;39.80;;;10.07;35.35;99589.97;4960214;28;114019;-86
2022/03/25 05:34:39;;;;;;;20.07;12.63;;;8.40;40.20;;;9.96;35.33;99584.53;4960282;28;124833;-87
2022/03/25 05:40:48;;;;;;;16.00;9.83;;;8.50;40.40;;;9.95;35.12;99587.59;4959973;28;114992;-83
2022/03/25 05:43:15;;;;;;;15.17;10.10;;;7.70;40.10;;;10.01;35.32;99597.47;4945645;28;124294;-89
2022/03/25 05:46:40;;;;;;;13.90;9.20;;;9.40;41.90;;;10.05;35.27;99593.03;4959864;28;123649;-86
2022/03/25 05:49:09;;;;;;;16.03;10.53;;;9.10;40.80;;;10.06;35.33;99600.19;4945728;28;114276;-89
2022/03/25 05:55:05;;;;;;;14.07;10.17;;;9.50;41.30;;;10.11;34.98;99600.16;4962321;28;124799;-87
2022/03/25 05:57:50;;;;;;;13.90;9.53;;;9.60;41.50;;;10.16;35.30;99600.13;4934114;28;122748;-86
2022/03/25 06:00:57;;;;;;;13.13;8.53;;;9.40;42.00;;;10.22;34.95;99600.06;4944716;28;114633;-88
2022/03/25 06:07:06;;;;;;;19.67;11.37;;;8.50;40.50;;;10.23;35.53;99598.94;4942566;28;125137;-89
2022/03/25 06:09:34;;;;;;;20.00;12.33;;;9.10;41.80;;;10.18;35.58;99597.03;4942028;28;123413;-89
2022/03/25 06:12:40;;;;;;;21.37;13.87;;;9.50;42.30;;;10.14;36.11;99607.84;4918827;28;112840;-89
2022/03/25 06:20:16;;;;;;;26.57;16.60;;;9.40;42.40;;;9.82;36.59;99621.38;4942335;28;125101;-89
2022/03/25 06:26:45;;;;;;;19.40;13.03;;;9.20;44.20;;;9.78;37.50;99625.81;4925249;28;114777;-89
2022/03/25 06:29:12;;;;;;;26.67;18.20;;;7.70;43.40;;;9.78;38.23;99626.66;4941433;28;114658;-89
2022/03/25 06:35:21;;;;;;;24.87;14.43;;;8.50;44.50;;;9.67;38.12;99631.41;4924815;28;124964;-91
2022/03/25 06:37:48;;;;;;;20.07;14.47;;;7.70;44.00;;;9.68;37.72;99626.72;4925082;28;114811;-89
2022/03/25 06:41:11;;;;;;;22.57;14.10;;;7.00;43.00;;;9.72;37.26;99625.88;4896961;28;113737;-91
2022/03/25 06:47:19;;;;;;;15.33;10.03;;;9.80;44.50;;;10.01;37.10;99635.31;4934740;28;123733;-90
2022/03/25 06:53:47;;;;;;;13.20;8.70;;;7.50;42.20;;;10.38;36.32;99635.56;4935838;28;115615;-89
2022/03/25 06:56:14;;;;;;;18.17;10.40;;;8.90;43.20;;;10.49;36.29;99628.00;4915313;28;122261;-89
2022/03/25 06:59:00;;;;;;;15.20;11.20;;;9.70;43.80;;;10.63;36.22;99635.59;4932917;28;123127;-90
2022/03/25 07:01:28;;;;;;;21.17;12.17;;;10.80;43.40;;;10.71;36.02;99646.84;4924409;28;114456;-90
2022/03/25 07:03:57;;;;;;;20.60;13.23;;;9.80;43.70;;;10.74;36.29;99628.84;4933636;28;113801;-89
2022/03/25 07:06:26;;;;;;;26.60;16.20;;;10.00;42.60;;;10.79;36.04;99646.19;4922132;28;123398;-90
2022/03/25 07:09:14;;;;;;;19.50;13.43;;;10.00;42.60;;;10.86;36.28;99648.63;4921097;28;123488;-90
2022/03/25 07:11:42;;;;;;;19.33;12.60;;;10.10;42.40;;;10.92;35.98;99650.22;4923340;28;114103;-89
2022/03/25 07:14:29;;;;;;;17.03;11.20;;;10.10;42.50;;;11.04;35.90;99645.09;4914245;28;113463;-89
2022/03/25 07:16:55;;;;;;;15.93;11.80;;;10.30;42.10;;;11.15;35.83;99658.78;4924235;28;122457;-89
2022/03/25 07:19:25;;;;;;;18.93;12.40;;;10.30;42.60;;;11.26;35.33;99658.38;4931808;28;123466;-90
2022/03/25 07:22:31;;;;;;;18.70;12.90;;;9.80;43.20;;;11.32;35.65;99647.25;4922020;28;113150;-90
2022/03/25 07:25:19;;;;;;;22.27;14.47;;;10.50;42.30;;;11.36;35.70;99656.59;4913874;28;113834;-90
2022/03/25 07:27:48;;;;;;;17.23;13.23;;;11.80;43.40;;;11.39;36.03;99656.84;4936299;28;123813;-90
2022/03/25 07:30:17;;;;;;;19.33;13.10;;;10.60;42.60;;;11.48;35.93;99663.34;4949530;28;123836;-91
2022/03/25 07:32:47;;;;;;;17.50;12.80;;;10.60;42.40;;;11.57;35.93;99666.28;4939908;28;113937;-92
2022/03/25 07:35:16;;;;;;;25.20;15.67;;;10.80;42.70;;;11.69;35.99;99669.44;4932645;28;113712;-90
2022/03/25 07:38:40;;;;;;;23.47;13.30;;;10.90;42.80;;;11.79;35.33;99659.31;4954178;28;124848;-90
2022/03/25 07:44:49;;;;;;;20.60;15.30;;;11.10;42.20;;;11.86;35.47;99655.09;4948094;28;114783;-88
2022/03/25 07:50:58;;;;;;;22.23;14.50;;;11.20;41.90;;;11.94;35.01;99659.94;4961067;28;125133;-89
2022/03/25 07:54:21;;;;;;;22.20;15.33;;;11.20;41.80;;;12.02;34.92;99660.41;4928139;28;124421;-87
2022/03/25 07:57:26;;;;;;;27.23;16.20;;;11.30;41.70;;;12.12;34.90;99660.25;4938401;28;115844;-92
2022/03/25 07:59:54;;;;;;;25.93;16.47;;;11.40;41.70;;;12.19;34.91;99663.44;4945193;28;115664;-86
2022/03/25 08:02:48;;;;;;;21.73;15.23;;;11.50;41.80;;;12.28;34.98;99675.50;4958051;28;124640;-89
2022/03/25 08:09:00;;;;;;;22.30;14.87;;;11.60;41.70;;;12.40;35.05;99679.75;4960966;28;114953;-91
2022/03/25 08:11:27;;;;;;;21.77;14.77;;;11.60;41.40;;;12.50;34.42;99671.25;4959709;28;114474;-86
2022/03/25 08:13:55;;;;;;;23.30;15.57;;;11.70;41.40;;;12.55;34.42;99673.94;4957100;28;125095;-93
2022/03/25 08:16:59;;;;;;;22.83;14.70;;;11.80;41.30;;;12.62;34.34;99668.81;4927080;28;123424;-91
2022/03/25 08:19:30;;;;;;;26.67;13.93;;;11.90;41.20;;;12.67;34.48;99671.50;4938681;28;115035;-86
2022/03/25 08:22:36;;;;;;;19.23;13.93;;;11.90;41.00;;;12.75;34.16;99678.28;4924193;28;113442;-89
2022/03/25 08:32:27;;;;;;;20.07;13.47;;;12.20;40.70;;;12.97;33.95;99674.81;4920239;28;115228;-91
2022/03/25 08:38:54;;;;;;;27.03;16.00;;;12.40;40.60;;;13.13;33.55;99678.94;4938433;28;125062;-92
2022/03/25 08:41:22;;;;;;;25.03;16.17;;;12.90;40.80;;;13.19;33.47;99683.28;4940093;28;123461;-92
2022/03/25 08:43:49;;;;;;;24.80;15.10;;;12.50;40.30;;;13.25;33.50;99670.94;4933113;28;116087;-92
2022/03/25 08:46:20;;;;;;;24.37;15.00;;;12.50;40.20;;;13.34;33.36;99661.91;4937904;28;114845;-92
2022/03/25 08:49:25;;;;;;;26.10;15.57;;;12.60;40.20;;;13.42;33.30;99669.50;4922539;28;122692;-85
2022/03/25 08:52:12;;;;;;;24.80;15.73;;;12.70;40.10;;;13.50;33.16;99665.19;4919101;28;123582;-91
2022/03/25 08:58:21;;;;;;;29.10;17.47;;;12.80;39.80;;;13.58;32.79;99665.28;4940652;28;116399;-92
2022/03/25 09:04:30;;;;;;;28.87;15.67;;;13.00;39.40;;;13.76;32.54;99659.91;4919428;28;124189;-90
2022/03/25 09:07:17;;;;;;;26.33;13.87;;;13.00;39.20;;;13.86;32.46;99662.41;4920968;28;115273;-84
2022/03/25 09:09:44;;;;;;;21.07;13.40;;;13.10;39.10;;;13.96;32.22;99656.63;4917808;28;114584;-92
2022/03/25 09:15:53;;;;;;;18.80;12.60;;;13.30;39.70;;;14.19;32.06;99665.00;4920199;28;124861;-91
2022/03/25 09:18:21;;;;;;;21.73;14.30;;;13.40;39.00;;;14.30;31.92;99660.84;4916049;28;113717;-94
2022/03/25 09:21:44;;;;;;;21.73;14.97;;;13.50;38.90;;;14.35;31.92;99661.53;4925053;28;114031;-92
2022/03/25 09:24:12;;;;;;;19.43;14.10;;;13.60;38.80;;;14.44;31.93;99660.75;4955470;28;125001;-93
2022/03/25 09:26:40;;;;;;;23.00;15.10;;;13.60;38.60;;;14.52;31.54;99651.66;4958881;28;123548;-92
2022/03/25 09:29:09;;;;;;;25.97;16.43;;;13.70;38.60;;;14.58;31.61;99656.78;4923982;28;112574;-91
2022/03/25 09:31:35;;;;;;;33.97;20.80;;;13.80;38.40;;;14.64;31.31;99645.53;4951515;28;114835;-91
2022/03/25 09:36:49;;;;;;;30.83;19.80;;;14.00;38.10;;;14.74;31.24;99648.84;4949069;28;124175;-91
2022/03/25 09:39:37;;;;;;;30.03;18.77;;;14.00;37.90;;;14.79;31.17;99650.69;4918400;28;113026;-93
2022/03/25 09:45:46;;;;;;;23.87;17.20;;;14.20;37.70;;;14.95;31.14;99656.66;4959158;28;124491;-92
2022/03/25 09:48:13;;;;;;;19.73;13.60;;;14.20;38.30;;;15.05;30.92;99663.91;4937808;28;122717;-91
2022/03/25 09:54:22;;;;;;;20.73;13.80;;;14.40;37.50;;;15.23;30.87;99657.25;4957468;28;115311;-92
2022/03/25 09:56:49;;;;;;;23.33;15.87;;;14.50;37.40;;;15.30;30.42;99649.25;4953299;28;123298;-92
2022/03/25 09:59:18;;;;;;;25.17;15.33;;;14.50;37.10;;;15.38;30.46;99650.41;4930744;28;123156;-92
2022/03/25 10:02:24;;;;;;;27.40;16.77;;;14.60;37.00;;;15.45;30.16;99650.78;4933055;28;113257;-93
2022/03/25 10:05:30;;;;;;;30.53;17.43;;;14.70;36.80;;;15.50;30.05;99647.00;4915700;28;114708;-93
2022/03/25 10:08:30;;;;;;;27.57;18.03;;;14.80;36.70;;;15.56;29.84;99648.50;4918061;28;122303;-91
2022/03/25 10:10:57;;;;;;;31.37;19.53;;;14.90;36.50;;;15.63;29.56;99640.47;4942255;28;123732;-93
2022/03/25 10:13:26;;;;;;;24.53;17.47;;;14.90;36.90;;;15.68;29.28;99643.09;4944194;28;113717;-93
2022/03/25 10:20:08;;;;;;;22.97;15.47;;;15.10;36.00;;;15.88;29.17;99639.72;4954449;28;124527;-92
2022/03/25 10:22:37;;;;;;;29.33;19.37;;;15.20;35.70;;;15.98;28.65;99632.16;4934728;28;123126;-93
2022/03/25 10:25:09;;;;;;;32.00;21.97;;;15.20;35.00;;;16.02;28.65;99639.56;4946673;28;114034;-91
2022/03/25 10:27:38;;;;;;;29.80;19.30;;;15.30;34.50;;;16.10;28.18;99622.00;4942260;28;113340;-92
2022/03/25 10:30:08;;;;;;;30.50;20.10;;;15.50;34.60;;;16.19;28.10;99629.53;4938548;28;123678;-93
2022/03/25 10:32:40;;;;;;;30.17;19.93;;;15.50;34.30;;;16.30;28.04;99636.41;4949377;28;124569;-92
2022/03/25 10:35:11;;;;;;;29.13;19.37;;;15.60;34.40;;;16.41;27.79;99639.66;4945367;28;113773;-94
2022/03/25 10:38:16;;;;;;;27.83;18.17;;;15.70;34.10;;;16.49;27.67;99634.06;4931490;28;113440;-94
2022/03/25 10:41:23;;;;;;;22.87;15.73;;;15.80;33.80;;;16.59;27.65;99641.28;4909650;28;123517;-92
2022/03/25 10:44:10;;;;;;;26.23;17.40;;;15.90;33.70;;;16.71;27.43;99635.84;4908849;28;122239;-93
2022/03/25 10:46:49;;;;;;;30.63;19.80;;;16.00;33.50;;;16.83;27.02;99629.59;4936247;28;114673;-93
2022/03/25 10:49:43;;;;;;;32.17;20.73;;;16.10;33.20;;;16.91;27.21;99623.16;4946880;28;114630;-92
2022/03/25 10:55:58;;;;;;;29.90;20.40;;;16.30;32.50;;;17.14;26.78;99620.91;4934394;28;124106;-92
2022/03/25 10:58:27;;;;;;;29.17;18.93;;;16.50;32.80;;;17.27;26.84;99621.81;4933837;28;114414;-93
2022/03/25 11:01:31;;;;;;;29.40;20.63;;;16.60;32.80;;;17.41;26.48;99618.81;4908874;28;113930;-93
2022/03/25 11:11:22;;;;;;;27.80;19.73;;;17.00;32.60;;;17.90;26.10;99604.34;4945605;28;115400;-93
2022/03/25 11:14:26;;;;;;;28.27;20.33;;;17.20;32.40;;;18.04;25.74;99610.47;4928557;28;113811;-93
2022/03/25 11:17:33;;;;;;;34.77;23.63;;;17.30;31.70;;;18.15;25.57;99594.88;4930250;28;124368;-92
2022/03/25 11:20:56;;;;;;;31.60;21.73;;;17.50;31.50;;;18.26;25.47;99593.28;4920091;28;122087;-92
2022/03/25 11:23:37;;;;;;;28.37;19.30;;;17.60;31.40;;;18.44;25.53;99587.53;4920615;28;113622;-92
2022/03/25 11:26:08;;;;;;;34.10;20.90;;;17.70;31.60;;;18.60;24.78;99590.47;4888870;28;114359;-93
2022/03/25 11:28:36;;;;;;;29.93;21.33;;;17.90;30.60;;;18.74;24.36;99582.56;4917689;28;123875;-92
2022/03/25 11:31:07;;;;;;;30.40;20.37;;;18.00;29.90;;;18.90;23.96;99588.34;4902970;28;122740;-93
2022/03/25 11:34:31;;;;;;;30.03;20.53;;;18.10;29.60;;;19.05;24.18;99586.81;4912011;28;113640;-93
2022/03/25 11:37:37;;;;;;;26.83;18.20;;;18.30;29.80;;;19.19;23.60;99578.88;4931794;28;113858;-93
2022/03/25 11:40:25;;;;;;;25.00;16.83;;;18.50;29.60;;;19.35;23.48;99576.19;4935149;28;124889;-93
2022/03/25 11:43:31;;;;;;;26.80;18.50;;;18.60;29.40;;;19.52;23.15;99572.31;4928363;28;123650;-93
2022/03/25 11:46:09;;;;;;;34.03;20.50;;;18.80;28.90;;;19.67;22.92;99565.19;4920481;28;115301;-95
2022/03/25 11:48:39;;;;;;;29.60;20.67;;;18.90;28.70;;;19.78;22.43;99561.53;4924517;28;114318;-94
2022/03/25 11:55:00;;;;;;;21.40;16.60;;;19.20;28.30;;;20.10;22.35;99556.03;4913844;28;124149;-92
2022/03/25 11:57:35;;;;;;;24.93;17.93;;;19.40;28.70;;;20.28;22.30;99556.50;4912498;28;114591;-92
2022/03/25 12:00:11;;;;;;;27.83;19.30;;;19.50;28.10;;;20.37;21.51;99553.53;4916845;28;114219;-94
2022/03/25 12:02:40;;;;;;;21.40;16.23;;;19.60;27.30;;;20.46;21.74;99557.00;4908143;28;124011;-93
2022/03/25 12:05:26;;;;;;;24.90;17.67;;;19.70;27.70;;;20.57;21.63;99546.88;4912024;28;123554;-92
2022/03/25 12:08:32;;;;;;;25.70;17.27;;;19.90;27.50;;;20.70;21.44;99551.22;4910339;28;113181;-92
2022/03/25 12:11:01;;;;;;;22.23;16.57;;;20.00;27.50;;;20.86;21.61;99536.38;4912112;28;114074;-92
2022/03/25 12:13:56;;;;;;;23.47;17.80;;;20.10;27.50;;;21.03;21.17;99541.59;4906955;28;124471;-93
2022/03/25 12:16:48;;;;;;;26.10;18.40;;;20.30;27.20;;;21.13;20.95;99535.44;4910351;28;122759;-93
2022/03/25 12:20:00;;;;;;;25.10;18.80;;;20.40;27.00;;;21.28;20.28;99535.75;4928507;28;114223;-93
2022/03/25 12:22:30;;;;;;;23.37;16.63;;;20.60;26.50;;;21.39;20.48;99525.63;4889256;28;114914;-93
2022/03/25 12:25:05;;;;;;;26.70;18.77;;;20.70;26.80;;;21.50;20.22;99520.22;4886664;28;124477;-94
2022/03/25 12:27:31;;;;;;;23.60;17.50;;;20.80;26.30;;;21.61;20.25;99515.66;4887090;28;123817;-93
2022/03/25 12:29:59;;;;;;;23.07;15.70;;;20.90;26.40;;;21.73;20.36;99523.13;4884553;28;114870;-93
2022/03/25 12:32:33;;;;;;;19.47;15.03;;;21.00;26.50;;;21.90;20.32;99521.88;4886813;28;114232;-95
2022/03/25 12:35:16;;;;;;;17.37;13.13;;;21.10;26.60;;;22.09;20.31;99512.59;4892478;28;123753;-94
2022/03/25 12:37:48;;;;;;;16.40;13.50;;;21.30;26.80;;;22.21;20.40;99504.00;4883200;28;123375;-93
2022/03/25 12:40:19;;;;;;;21.53;15.97;;;21.50;26.90;;;22.35;20.15;99504.25;4888344;28;114690;-95
2022/03/25 12:42:52;;;;;;;24.57;17.80;;;21.60;26.60;;;22.48;19.67;99504.88;4895445;28;114154;-94
2022/03/25 12:45:28;;;;;;;24.80;18.40;;;21.70;26.20;;;22.55;19.88;99504.22;4892711;28;124315;-93
2022/03/25 12:47:54;;;;;;;20.70;15.80;;;21.80;26.00;;;22.62;20.09;99502.34;4884887;28;123438;-94
2022/03/25 12:50:25;;;;;;;25.30;17.20;;;21.90;26.20;;;22.75;19.50;99496.50;4879130;28;113040;-95
2022/03/25 12:53:00;;;;;;;20.63;16.80;;;22.00;26.00;;;22.84;19.59;99502.69;4896760;28;113583;-93
2022/03/25 12:55:46;;;;;;;23.73;17.60;;;22.10;25.80;;;22.90;19.41;99496.34;4868540;28;123859;-94
2022/03/25 12:58:15;;;;;;;16.33;13.47;;;22.20;25.70;;;23.01;19.66;99504.19;4899470;28;123251;-93
2022/03/25 13:01:05;;;;;;;21.13;16.80;;;22.30;26.10;;;23.13;19.58;99499.16;4924827;28;114212;-94
2022/03/25 13:03:34;;;;;;;16.27;12.90;;;22.40;25.80;;;23.29;19.74;99487.72;4939878;28;114667;-94
2022/03/25 13:06:12;;;;;;;19.90;14.33;;;22.50;26.20;;;23.48;19.72;99491.56;4925654;28;123460;-94
2022/03/25 13:08:39;;;;;;;21.60;16.60;;;22.70;26.20;;;23.61;19.24;99490.13;4932183;28;123587;-94
2022/03/25 13:11:06;;;;;;;18.63;15.83;;;22.80;26.00;;;23.68;19.29;99484.59;4932104;28;113691;-93
2022/03/25 13:13:38;;;;;;;21.60;15.77;;;22.90;25.90;;;23.77;19.13;99476.66;4929336;28;114071;-93
2022/03/25 13:16:09;;;;;;;21.27;16.37;;;23.00;25.70;;;23.87;19.05;99483.63;4930452;28;123516;-94
2022/03/25 13:18:38;;;;;;;20.37;16.27;;;23.10;25.60;;;23.99;18.81;99482.53;4922104;28;123458;-92
2022/03/25 13:21:10;;;;;;;17.93;14.73;;;23.20;26.00;;;24.09;18.93;99476.19;4928742;28;114404;-89
2022/03/25 13:23:38;;;;;;;27.87;20.83;;;23.30;25.50;;;24.15;17.98;99485.97;4888207;28;112227;-94
2022/03/25 13:26:07;;;;;;;30.77;22.07;;;23.40;24.40;;;24.18;18.00;99479.53;4929606;28;123379;-93
2022/03/25 13:28:39;;;;;;;21.77;17.60;;;23.50;24.30;;;24.20;18.51;99476.31;4901635;28;123863;-94
2022/03/25 13:31:10;;;;;;;23.93;16.67;;;23.50;24.80;;;24.33;18.07;99476.84;4914081;28;114714;-93
2022/03/25 13:33:51;;;;;;;22.47;16.50;;;23.70;24.60;;;24.41;17.79;99478.53;4929954;28;115884;-93
2022/03/25 13:36:35;;;;;;;18.73;15.20;;;23.70;24.10;;;24.47;17.28;99471.34;4911282;28;124115;-93
2022/03/25 13:39:19;;;;;;;16.07;12.30;;;23.80;23.30;;;24.59;17.59;99475.91;4929124;28;123046;-93
2022/03/25 13:41:46;;;;;;;18.47;15.30;;;23.90;23.90;;;24.74;17.40;99466.31;4931012;28;114134;-93
2022/03/25 13:44:13;;;;;;;15.10;11.30;;;24.00;23.90;;;24.90;17.74;99466.03;4931754;28;114096;-92
2022/03/25 13:46:41;;;;;;;19.83;14.80;;;24.20;24.40;;;25.08;16.86;99466.97;4913882;28;122812;-93
2022/03/25 13:49:12;;;;;;;16.57;12.90;;;24.30;23.60;;;25.15;16.78;99463.44;4928696;28;124673;-93
2022/03/25 13:51:41;;;;;;;20.23;14.87;;;24.40;23.30;;;25.24;16.51;99465.91;4928848;28;114022;-91
2022/03/25 13:54:12;;;;;;;17.33;14.80;;;24.50;22.70;;;25.33;16.30;99457.84;4929411;28;113245;-93
2022/03/25 13:56:49;;;;;;;12.03;10.30;;;24.60;23.00;;;25.44;16.61;99453.09;4928478;28;124184;-93
2022/03/25 13:59:30;;;;;;;15.43;12.20;;;24.70;23.40;;;25.61;16.62;99462.84;4909227;28;123821;-93
2022/03/25 14:01:57;;;;;;;18.10;13.60;;;24.90;23.50;;;25.78;16.65;99455.63;4923573;28;114388;-92
2022/03/25 14:04:26;;;;;;;14.03;11.87;;;25.00;23.20;;;25.88;16.67;99446.38;4932363;28;113101;-91
2022/03/25 14:06:58;;;;;;;14.83;11.90;;;25.10;23.20;;;25.93;16.34;99446.00;4933330;28;124121;-91